Time;durP1;ratioP1;P1;durP2;ratioP2;P2;SDS_P1;SDS_P2;PMS_P1;PMS_P2;Temp;Humidity;BMP_temperature;BMP_pressure;BME280_temperature;BME280_humidity;BME280_pressure;Samples;Min_cycle;Max_cycle;Signal;HPM_P1;HPM_P2
2022/06/22 00:02:15;;;;;;;3.28;1.88;;;;;;;12.63;84.94;101440.56;5068811;28;20024;-72
2022/06/22 00:04:51;;;;;;;4.82;2.00;;;;;;;12.62;85.50;101439.72;5068080;28;20105;-72
2022/06/22 00:07:42;;;;;;;2.97;2.20;;;;;;;12.59;85.85;101445.34;5082053;28;20033;-72
2022/06/22 00:10:23;;;;;;;3.15;2.10;;;;;;;12.55;86.99;101446.63;5060717;28;20021;-73
2022/06/22 00:12:51;;;;;;;2.08;1.75;;;;;;;12.47;85.42;101441.22;5066413;28;20056;-72
2022/06/22 00:15:22;;;;;;;3.90;1.40;;;;;;;12.51;85.91;101451.34;5066560;28;20050;-73
2022/06/22 00:17:47;;;;;;;6.80;2.70;;;;;;;12.48;86.66;101450.84;5068526;28;20032;-72
2022/06/22 00:20:22;;;;;;;5.03;1.95;;;;;;;12.44;87.51;101446.81;5067633;28;20441;-72
2022/06/22 00:22:57;;;;;;;2.47;2.08;;;;;;;12.45;86.64;101448.47;5069559;28;20036;-72
2022/06/22 00:25:32;;;;;;;3.15;2.33;;;;;;;12.41;86.47;101452.38;5067550;28;20025;-71
2022/06/22 00:28:27;;;;;;;2.88;1.83;;;;;;;12.33;86.46;101455.78;5066080;28;20036;-71
2022/06/22 00:31:13;;;;;;;4.38;1.48;;;;;;;12.31;87.12;101453.28;5067154;28;20533;-71
2022/06/22 00:33:59;;;;;;;7.43;2.53;;;;;;;12.29;87.69;101449.94;5068058;28;20406;-73
2022/06/22 00:36:28;;;;;;;2.20;1.27;;;;;;;12.19;86.45;101443.03;5065843;28;20024;-72
2022/06/22 00:38:53;;;;;;;2.60;1.73;;;;;;;12.18;87.25;101452.78;5068896;28;20020;-73
2022/06/22 00:41:23;;;;;;;2.72;2.03;;;;;;;12.18;88.01;101457.25;5072623;28;20550;-73
2022/06/22 00:43:49;;;;;;;4.15;1.77;;;;;;;12.14;86.56;101454.03;5071415;28;20021;-72
2022/06/22 00:46:18;;;;;;;1.83;1.52;;;;;;;12.09;86.85;101449.19;5070832;28;20024;-71
2022/06/22 00:48:46;;;;;;;2.90;2.30;;;;;;;12.05;86.44;101447.81;5070998;28;20070;-73
2022/06/22 00:51:16;;;;;;;2.33;1.90;;;;;;;12.05;88.03;101441.69;5069811;28;20036;-72
2022/06/22 00:53:51;;;;;;;4.32;1.50;;;;;;;12.00;87.77;101444.78;5070920;28;20073;-72
2022/06/22 00:56:16;;;;;;;2.17;1.23;;;;;;;11.97;88.05;101434.47;5070930;28;20017;-72
2022/06/22 00:59:06;;;;;;;1.85;1.10;;;;;;;11.86;87.32;101430.16;5069549;28;20029;-72
2022/06/22 01:01:41;;;;;;;1.40;1.25;;;;;;;11.90;87.35;101436.84;5070134;28;20549;-73
2022/06/22 01:04:17;;;;;;;1.73;1.60;;;;;;;11.89;87.62;101435.22;5071547;28;20027;-73
2022/06/22 01:06:50;;;;;;;2.70;1.67;;;;;;;11.85;86.52;101420.56;5029275;28;20409;-74
2022/06/22 01:09:37;;;;;;;2.78;1.80;;;;;;;11.74;87.38;101402.25;5052558;28;20491;-74
2022/06/22 01:12:34;;;;;;;1.77;1.30;;;;;;;11.81;87.49;101421.84;5048910;28;20029;-74
2022/06/22 01:15:21;;;;;;;5.50;1.63;;;;;;;11.75;86.25;101425.03;4953806;28;20041;-73
2022/06/22 01:18:00;;;;;;;1.85;1.40;;;;;;;11.74;85.90;101423.38;4954155;28;20038;-73
2022/06/22 01:20:53;;;;;;;2.42;1.58;;;;;;;11.66;86.61;101426.75;4968776;28;20023;-73
2022/06/22 01:23:37;;;;;;;2.55;1.65;;;;;;;11.63;87.61;101423.56;4969939;28;20049;-73
2022/06/22 01:26:07;;;;;;;3.03;1.17;;;;;;;11.59;88.05;101414.25;4951694;28;20125;-73
2022/06/22 01:28:33;;;;;;;3.83;1.80;;;;;;;11.58;87.53;101412.56;4969751;28;20058;-74
2022/06/22 01:31:13;;;;;;;3.03;1.60;;;;;;;11.49;87.48;101406.31;4969720;28;20122;-73
2022/06/22 01:33:45;;;;;;;2.42;1.55;;;;;;;11.55;87.28;101413.69;4970629;28;20033;-73
2022/06/22 01:36:21;;;;;;;3.47;2.58;;;;;;;11.50;89.87;101411.47;4968692;28;20038;-73
2022/06/22 01:38:47;;;;;;;4.55;2.58;;;;;;;11.45;92.35;101418.16;4969223;28;20039;-73
2022/06/22 01:41:15;;;;;;;5.93;2.70;;;;;;;11.33;93.44;101420.13;4968923;28;20049;-73
2022/06/22 01:43:50;;;;;;;3.13;2.03;;;;;;;11.21;95.31;101411.50;4968832;28;20050;-74
2022/06/22 01:46:43;;;;;;;4.10;2.70;;;;;;;11.21;93.23;101423.88;4968865;28;20023;-73
2022/06/22 01:49:16;;;;;;;4.80;1.80;;;;;;;11.28;90.88;101432.94;4941845;28;20047;-73
2022/06/22 01:51:48;;;;;;;2.58;1.63;;;;;;;11.29;90.91;101431.94;5046287;28;20413;-73
2022/06/22 01:54:23;;;;;;;2.78;2.35;;;;;;;11.27;93.64;101431.25;5030853;28;20032;-73
2022/06/22 01:56:59;;;;;;;5.72;2.13;;;;;;;11.21;94.43;101432.63;5031128;28;20028;-73
2022/06/22 01:59:38;;;;;;;2.75;2.35;;;;;;;11.17;94.74;101436.56;5049555;28;20433;-73
2022/06/22 02:02:16;;;;;;;2.45;1.33;;;;;;;11.15;94.91;101427.06;5050168;28;20400;-73
2022/06/22 02:04:52;;;;;;;2.15;1.45;;;;;;;11.12;94.63;101450.16;5046450;28;20052;-73
2022/06/22 02:07:46;;;;;;;3.08;2.60;;;;;;;10.91;95.40;101437.09;5068164;28;20059;-73
2022/06/22 02:10:23;;;;;;;4.03;2.83;;;;;;;10.65;98.29;101452.63;5068371;28;20380;-73
2022/06/22 02:12:57;;;;;;;4.32;2.20;;;;;;;10.50;99.56;101459.25;5069203;28;20032;-73
2022/06/22 02:15:52;;;;;;;2.65;1.95;;;;;;;10.46;100.00;101447.28;5070280;28;20059;-73
2022/06/22 02:18:43;;;;;;;3.13;2.00;;;;;;;10.47;100.00;101443.66;5061867;28;20044;-73
2022/06/22 02:21:37;;;;;;;2.67;1.95;;;;;;;10.49;100.00;101450.50;5064590;28;20178;-73
2022/06/22 02:24:11;;;;;;;4.78;1.73;;;;;;;10.46;100.00;101447.28;5067542;28;20028;-73
2022/06/22 02:26:50;;;;;;;4.00;1.92;;;;;;;10.47;100.00;101443.66;5067626;28;20035;-73
2022/06/22 02:29:19;;;;;;;3.00;1.65;;;;;;;10.31;100.00;101427.53;5059638;28;20028;-73
2022/06/22 02:31:46;;;;;;;4.68;2.50;;;;;;;10.33;100.00;101444.88;5068666;28;20020;-73
2022/06/22 02:34:12;;;;;;;3.22;1.63;;;;;;;10.33;100.00;101446.69;5069712;28;20033;-73
2022/06/22 02:36:43;;;;;;;2.58;1.95;;;;;;;10.37;100.00;101448.09;5068278;28;20028;-73
2022/06/22 02:39:11;;;;;;;1.90;1.50;;;;;;;10.36;99.02;101438.50;5068762;28;20107;-73
2022/06/22 02:44:29;;;;;;;3.13;1.75;;;;;;;10.52;96.18;101452.03;5068657;28;20067;-73
2022/06/22 02:46:58;;;;;;;3.92;1.52;;;;;;;10.55;94.37;101451.75;5068997;28;20029;-73
2022/06/22 02:49:29;;;;;;;2.17;1.85;;;;;;;10.59;95.51;101461.06;5067525;28;20021;-73
2022/06/22 02:51:55;;;;;;;4.90;1.75;;;;;;;10.58;95.55;101454.13;5069684;28;20082;-73
2022/06/22 02:54:30;;;;;;;2.67;1.77;;;;;;;10.48;95.77;101434.78;5069882;28;20032;-73
2022/06/22 02:57:21;;;;;;;2.55;2.03;;;;;;;10.51;97.46;101447.72;5066974;28;20035;-73
2022/06/22 02:59:49;;;;;;;4.82;2.28;;;;;;;10.48;98.27;101445.34;5067747;28;20103;-73
2022/06/22 03:02:16;;;;;;;2.42;1.17;;;;;;;10.49;97.58;101453.16;5085016;28;20068;-73
2022/06/22 03:04:44;;;;;;;2.25;1.90;;;;;;;10.47;97.72;101456.84;5084846;28;20385;-73
2022/06/22 03:07:10;;;;;;;3.13;1.77;;;;;;;10.46;98.07;101468.41;5068623;28;20534;-73
2022/06/22 03:09:38;;;;;;;2.85;1.77;;;;;;;10.29;97.85;101452.22;5068867;28;20029;-73
2022/06/22 03:12:04;;;;;;;2.50;2.28;;;;;;;10.36;99.70;101467.53;5070096;28;20101;-73
2022/06/22 03:14:32;;;;;;;3.17;1.60;;;;;;;10.26;99.10;101462.19;5069442;28;20020;-73
2022/06/22 03:17:05;;;;;;;4.88;2.38;;;;;;;10.00;100.00;101452.06;5068502;28;20376;-73
2022/06/22 03:19:56;;;;;;;2.22;2.03;;;;;;;10.16;100.00;101477.13;5068149;28;20503;-73
2022/06/22 03:22:28;;;;;;;;;;;;;;;10.16;100.00;101477.97;5058542;28;20051;-74
2022/06/22 03:25:29;;;;;;;2.28;1.58;;;;;;;10.20;99.73;101487.28;5069336;28;19916;-73
2022/06/22 03:28:01;;;;;;;2.50;1.60;;;;;;;10.21;98.56;101485.47;5068026;28;20124;-73
2022/06/22 03:30:30;;;;;;;2.45;1.92;;;;;;;10.29;98.32;101496.25;5067976;28;20028;-73
2022/06/22 03:33:10;;;;;;;2.60;1.75;;;;;;;10.22;98.65;101472.16;5069700;28;20025;-73
2022/06/22 03:35:38;;;;;;;3.40;1.88;;;;;;;10.38;99.01;101491.97;5083425;28;20063;-73
2022/06/22 03:38:21;;;;;;;2.03;1.10;;;;;;;10.43;98.47;101489.75;5066915;28;20407;-73
2022/06/22 03:40:54;;;;;;;2.30;1.60;;;;;;;10.44;96.96;101486.16;5067122;28;20116;-73
2022/06/22 03:43:32;;;;;;;2.25;1.58;;;;;;;10.53;97.22;101497.72;5068107;28;20047;-73
2022/06/22 03:46:05;;;;;;;3.75;2.15;;;;;;;10.54;95.68;101497.59;5068372;28;20024;-73
2022/06/22 03:48:38;;;;;;;2.25;1.58;;;;;;;10.60;94.55;101488.28;5067122;28;20036;-73
2022/06/22 03:51:10;;;;;;;2.58;2.20;;;;;;;10.59;96.54;101478.72;5068602;28;20094;-73
2022/06/22 03:53:53;;;;;;;2.08;1.65;;;;;;;10.69;96.47;101485.69;5069429;28;20094;-73
2022/06/22 03:56:24;;;;;;;2.53;1.30;;;;;;;10.70;97.84;101468.88;5069392;28;20396;-73
2022/06/22 03:58:52;;;;;;;2.75;2.08;;;;;;;10.71;98.89;101456.50;5068441;28;20025;-73
2022/06/22 04:01:19;;;;;;;2.28;1.27;;;;;;;10.82;97.46;101480.19;5067055;28;20028;-73
2022/06/22 04:03:45;;;;;;;1.75;1.23;;;;;;;10.83;95.61;101473.06;5068523;28;20032;-73
2022/06/22 04:06:29;;;;;;;4.63;1.58;;;;;;;10.96;96.73;101478.09;5050125;28;20500;-73
2022/06/22 04:08:54;;;;;;;3.42;2.20;;;;;;;10.94;97.32;101467.66;5082764;28;20086;-73
2022/06/22 04:11:37;;;;;;;1.65;1.52;;;;;;;10.94;97.60;101465.03;5067563;28;20024;-73
2022/06/22 04:14:17;;;;;;;1.92;1.48;;;;;;;11.06;96.13;101466.59;5083342;28;20035;-73
2022/06/22 04:16:49;;;;;;;3.75;2.03;;;;;;;11.04;93.89;101452.69;5069306;28;20043;-73
2022/06/22 04:19:25;;;;;;;1.75;1.10;;;;;;;11.21;93.16;101442.38;5070716;28;20025;-73
2022/06/22 04:21:59;;;;;;;2.05;1.85;;;;;;;11.44;91.54;101462.25;5062382;28;20021;-74
2022/06/22 04:24:44;;;;;;;1.13;1.00;;;;;;;11.50;90.06;101448.47;5069252;28;20031;-74
2022/06/22 04:27:18;;;;;;;1.17;0.88;;;;;;;11.51;88.68;101439.56;5067489;28;20020;-74
2022/06/22 04:29:58;;;;;;;1.55;1.13;;;;;;;11.55;89.54;101426.91;5069714;28;20039;-74
2022/06/22 04:32:54;;;;;;;2.33;1.40;;;;;;;11.55;88.83;101428.72;5070414;28;20020;-74
2022/06/22 04:35:43;;;;;;;2.38;1.70;;;;;;;11.51;88.59;101412.31;5070173;28;20495;-74
2022/06/22 04:38:30;;;;;;;0.68;0.47;;;;;;;11.56;88.40;101414.50;5068574;28;20071;-74
2022/06/22 04:41:31;;;;;;;1.70;1.20;;;;;;;11.64;87.43;101417.28;5070963;28;20035;-74
2022/06/22 04:44:03;;;;;;;1.95;1.45;;;;;;;11.73;89.10;101411.13;5066943;28;20090;-73
2022/06/22 04:46:43;;;;;;;4.72;1.75;;;;;;;11.81;89.72;101410.44;5066736;28;20122;-73
2022/06/22 04:49:20;;;;;;;1.42;1.25;;;;;;;11.92;91.34;101413.75;5066362;28;20078;-74
2022/06/22 04:51:50;;;;;;;2.65;1.40;;;;;;;11.97;91.36;101407.19;5067079;28;20031;-74
2022/06/22 04:54:30;;;;;;;1.52;1.33;;;;;;;12.28;89.96;101426.25;5067251;28;20051;-74
2022/06/22 04:56:58;;;;;;;2.95;1.35;;;;;;;12.56;91.31;101427.09;5074542;28;20214;-74
2022/06/22 04:59:25;;;;;;;3.05;1.58;;;;;;;12.79;92.90;101434.63;5066788;28;20424;-74
2022/06/22 05:01:55;;;;;;;2.88;1.52;;;;;;;12.97;92.61;101428.31;5066794;28;20036;-74
2022/06/22 05:04:26;;;;;;;2.58;1.67;;;;;;;13.18;91.74;101422.72;5067384;28;20043;-74
2022/06/22 05:07:27;;;;;;;2.47;1.50;;;;;;;13.35;89.48;101436.16;5067211;28;20036;-68
2022/06/22 05:09:56;;;;;;;;;;;;;;;13.53;90.04;101429.00;5063974;28;20498;-71
2022/06/22 05:12:25;;;;;;;3.92;1.40;;;;;;;13.65;89.64;101418.13;5068206;28;19912;-67
2022/06/22 05:14:53;;;;;;;9.48;2.22;;;;;;;13.74;91.48;101412.72;5067878;28;20124;-67
2022/06/22 05:17:32;;;;;;;3.65;2.45;;;;;;;13.82;93.02;101411.09;5068347;28;20107;-67
2022/06/22 05:20:04;;;;;;;3.58;1.83;;;;;;;13.87;92.67;101409.66;5064259;28;20068;-67
2022/06/22 05:22:30;;;;;;;4.03;2.72;;;;;;;14.04;92.05;101421.16;5066908;28;20024;-67
2022/06/22 05:25:03;;;;;;;4.85;2.15;;;;;;;14.19;92.17;101422.22;5066884;28;20044;-67
2022/06/22 05:27:34;;;;;;;1.92;1.63;;;;;;;14.30;93.29;101420.28;5070073;28;20427;-67
2022/06/22 05:30:05;;;;;;;4.32;2.20;;;;;;;14.46;91.81;101425.66;5067291;28;20025;-67
2022/06/22 05:32:34;;;;;;;4.22;1.90;;;;;;;14.67;90.38;101430.53;5067047;28;20427;-69
2022/06/22 05:35:07;;;;;;;2.28;1.67;;;;;;;14.86;89.27;101410.81;5065429;28;20107;-72
2022/06/22 05:37:37;;;;;;;1.95;1.75;;;;;;;15.18;88.25;101438.44;5067236;28;20037;-72
2022/06/22 05:40:04;;;;;;;2.95;2.28;;;;;;;15.48;88.75;101436.06;5061376;28;20032;-72
2022/06/22 05:42:31;;;;;;;3.83;2.45;;;;;;;15.84;88.59;101431.22;5067811;28;20036;-72
2022/06/22 05:44:58;;;;;;;2.63;2.25;;;;;;;16.20;86.80;101420.13;5063278;28;20166;-72
2022/06/22 05:47:29;;;;;;;3.28;2.42;;;;;;;16.52;86.73;101421.78;5066167;28;20055;-72
2022/06/22 05:50:01;;;;;;;;;;;;;;;16.93;83.81;101436.75;5064381;28;20551;-72
2022/06/22 05:52:38;;;;;;;3.22;1.58;;;;;;;17.18;82.41;101454.22;5064515;28;19916;-72
2022/06/22 05:55:22;;;;;;;5.10;1.63;;;;;;;17.51;80.40;101440.63;5062806;28;20043;-72
2022/06/22 05:58:01;;;;;;;3.70;1.75;;;;;;;17.60;79.07;101436.84;5065654;28;20032;-72
2022/06/22 06:00:34;;;;;;;4.10;2.80;;;;;;;17.48;81.49;101438.28;5063023;28;20115;-72
2022/06/22 06:03:06;;;;;;;5.57;2.47;;;;;;;17.41;81.23;101443.53;5075566;28;20363;-72
2022/06/22 06:05:38;;;;;;;3.58;2.58;;;;;;;17.42;80.81;101452.34;5079142;28;20040;-72
2022/06/22 06:08:15;;;;;;;8.50;2.28;;;;;;;17.51;79.81;101450.44;5061318;28;20412;-72
2022/06/22 06:10:43;;;;;;;3.35;2.17;;;;;;;17.53;79.93;101443.06;5062832;28;20056;-72
2022/06/22 06:13:08;;;;;;;2.95;2.25;;;;;;;17.56;80.62;101446.22;5066819;28;20393;-72
2022/06/22 06:15:38;;;;;;;3.42;1.92;;;;;;;17.78;78.59;101462.38;5063114;28;20024;-72
2022/06/22 06:18:07;;;;;;;2.30;1.60;;;;;;;17.92;78.72;101453.59;5067677;28;20520;-72
2022/06/22 06:20:39;;;;;;;5.97;2.60;;;;;;;17.81;79.26;101456.66;5066364;28;20013;-72
2022/06/22 06:23:20;;;;;;;5.03;1.98;;;;;;;18.00;79.21;101456.13;5067811;28;20511;-72
2022/06/22 06:28:46;;;;;;;6.00;2.40;;;;;;;18.37;77.90;101459.72;5067618;28;19915;-72
2022/06/22 06:31:19;;;;;;;4.07;2.00;;;;;;;18.54;77.12;101460.34;5063377;28;20472;-72
2022/06/22 06:33:44;;;;;;;4.57;2.05;;;;;;;18.97;75.45;101468.47;5065462;28;20020;-72
2022/06/22 06:36:19;;;;;;;2.88;1.80;;;;;;;19.42;74.65;101466.38;5066743;28;20034;-72
2022/06/22 06:39:00;;;;;;;2.65;1.63;;;;;;;20.23;71.68;101462.41;5064323;28;20154;-72
2022/06/22 06:41:47;;;;;;;8.50;2.25;;;;;;;20.77;70.61;101468.81;5066568;28;20035;-72
2022/06/22 06:44:21;;;;;;;3.55;1.20;;;;;;;21.39;67.74;101472.22;5067123;28;20066;-73
2022/06/22 06:46:51;;;;;;;4.28;1.40;;;;;;;21.98;65.21;101471.38;5066883;28;20124;-72
2022/06/22 06:49:32;;;;;;;3.25;1.10;;;;;;;22.45;64.91;101469.38;5067485;28;20016;-72
2022/06/22 06:52:21;;;;;;;2.03;1.13;;;;;;;22.85;63.34;101471.84;5063479;28;20026;-72
2022/06/22 06:54:56;;;;;;;6.18;1.33;;;;;;;23.28;62.39;101463.09;5064711;28;20028;-72
2022/06/22 06:57:22;;;;;;;5.80;1.65;;;;;;;23.61;61.29;101480.84;5081402;28;20028;-72
2022/06/22 06:59:56;;;;;;;4.95;1.65;;;;;;;23.95;59.96;101494.84;5065535;28;20484;-72
2022/06/22 07:02:31;;;;;;;3.92;1.33;;;;;;;24.33;58.29;101485.72;5065873;28;20043;-72
2022/06/22 07:04:58;;;;;;;6.10;1.77;;;;;;;24.18;57.82;101476.13;5082426;28;20040;-72
2022/06/22 07:07:33;;;;;;;3.28;1.45;;;;;;;24.55;58.51;101478.81;5067196;28;20480;-72
2022/06/22 07:10:03;;;;;;;3.38;1.55;;;;;;;25.08;56.83;101479.94;5065690;28;20179;-72
2022/06/22 07:12:35;;;;;;;3.72;1.20;;;;;;;25.15;56.35;101486.06;5067021;28;20024;-72
2022/06/22 07:15:05;;;;;;;2.03;1.10;;;;;;;25.42;54.28;101483.78;5066055;28;20105;-72
2022/06/22 07:17:32;;;;;;;4.30;1.00;;;;;;;25.73;54.09;101481.78;5059531;28;20028;-72
2022/06/22 07:20:16;;;;;;;2.95;1.42;;;;;;;26.08;52.05;101478.25;5065792;28;20074;-72
2022/06/22 07:23:03;;;;;;;2.45;1.30;;;;;;;25.87;53.69;101485.09;5064144;28;20120;-72
2022/06/22 07:25:29;;;;;;;2.38;1.10;;;;;;;26.22;52.93;101476.13;5066432;28;20039;-73
2022/06/22 07:28:03;;;;;;;4.47;1.40;;;;;;;26.45;52.13;101483.34;5066545;28;20047;-73
2022/06/22 07:30:36;;;;;;;2.75;1.08;;;;;;;26.25;52.72;101476.44;5063361;28;20294;-73
2022/06/22 07:33:02;;;;;;;3.90;1.27;;;;;;;26.57;51.89;101478.75;5064908;28;20024;-73
2022/06/22 07:35:48;;;;;;;4.60;1.17;;;;;;;27.15;52.17;101482.19;5065854;28;20039;-73
2022/06/22 07:38:25;;;;;;;1.60;0.88;;;;;;;27.76;51.19;101486.94;5064625;28;20267;-73
2022/06/22 07:43:36;;;;;;;6.10;1.50;;;;;;;28.10;48.95;101485.81;5066825;28;20110;-73
2022/06/22 07:46:03;;;;;;;4.07;1.00;;;;;;;27.44;50.86;101495.72;5066412;28;20048;-73
2022/06/22 07:48:32;;;;;;;2.50;1.33;;;;;;;27.97;49.88;101479.97;5068604;28;20033;-73
2022/06/22 07:51:02;;;;;;;1.92;0.98;;;;;;;28.80;47.81;101486.09;5069752;28;20039;-73
2022/06/22 07:53:33;;;;;;;6.70;1.13;;;;;;;29.19;47.92;101496.00;5071209;28;20028;-73
2022/06/22 07:56:09;;;;;;;3.30;1.33;;;;;;;29.20;47.40;101494.91;5071215;28;20032;-73
2022/06/22 07:58:41;;;;;;;2.80;1.13;;;;;;;29.67;46.96;101500.41;5071005;28;20115;-73
2022/06/22 08:01:14;;;;;;;4.43;1.40;;;;;;;29.11;47.99;101492.69;5068159;28;20500;-73
2022/06/22 08:03:46;;;;;;;1.92;1.20;;;;;;;29.60;47.55;101482.69;5055613;28;20017;-72
2022/06/22 08:06:26;;;;;;;3.88;1.33;;;;;;;30.15;45.87;101503.97;5054657;28;20048;-72
2022/06/22 08:08:58;;;;;;;2.45;0.85;;;;;;;29.91;45.71;101506.28;5050375;28;20036;-72
2022/06/22 08:11:30;;;;;;;2.10;1.05;;;;;;;30.44;44.91;101511.72;5032226;28;20021;-72
2022/06/22 08:14:06;;;;;;;2.45;0.95;;;;;;;30.52;43.32;101507.66;5047804;28;20031;-72
2022/06/22 08:16:36;;;;;;;2.45;1.20;;;;;;;30.62;42.09;101501.41;5049730;28;20024;-72
2022/06/22 08:19:03;;;;;;;;;;;;;;;30.98;42.51;101498.78;5052348;28;20108;-72
2022/06/22 08:21:29;;;;;;;2.40;1.17;;;;;;;30.82;40.84;101496.03;5049972;28;19919;-72
2022/06/22 08:23:57;;;;;;;2.47;1.25;;;;;;;30.87;40.86;101500.69;5033380;28;20036;-73
2022/06/22 08:26:31;;;;;;;2.05;1.00;;;;;;;31.52;39.86;101498.25;5050747;28;20037;-72
2022/06/22 08:28:58;;;;;;;4.45;0.88;;;;;;;31.85;40.21;101502.25;5032646;28;20064;-73
2022/06/22 08:31:50;;;;;;;2.33;0.93;;;;;;;31.63;41.52;101493.59;5050333;28;20404;-73
2022/06/22 08:34:22;;;;;;;2.08;0.77;;;;;;;32.31;39.22;101495.84;5050653;28;20052;-73
2022/06/22 08:37:06;;;;;;;1.92;0.77;;;;;;;32.23;40.04;101497.25;5050197;28;20068;-72
2022/06/22 08:39:48;;;;;;;1.67;1.10;;;;;;;32.89;38.08;101490.59;5050487;28;20025;-72
2022/06/22 08:42:24;;;;;;;2.08;1.08;;;;;;;32.92;38.38;101490.00;5047981;28;20039;-71
2022/06/22 08:44:59;;;;;;;1.67;0.95;;;;;;;32.94;40.12;101500.66;5050818;28;20500;-72
2022/06/22 08:47:43;;;;;;;2.17;0.80;;;;;;;33.15;38.89;101493.16;5049536;28;20052;-73
2022/06/22 08:50:34;;;;;;;1.38;0.60;;;;;;;33.51;39.00;101495.53;5048758;28;20033;-73
2022/06/22 08:53:13;;;;;;;1.90;0.80;;;;;;;33.65;38.52;101485.56;5029396;28;20063;-73
2022/06/22 08:56:06;;;;;;;1.92;1.10;;;;;;;34.08;38.33;101482.03;5032450;28;20618;-73
2022/06/22 08:58:46;;;;;;;2.28;1.10;;;;;;;34.10;37.30;101490.78;5048529;28;20170;-73
2022/06/22 09:01:23;;;;;;;2.95;0.93;;;;;;;33.91;37.77;101477.88;5050028;28;20025;-73
2022/06/22 09:04:25;;;;;;;2.00;1.27;;;;;;;34.14;37.13;101497.34;5050325;28;20098;-73
2022/06/22 09:07:16;;;;;;;2.97;1.00;;;;;;;34.35;37.21;101498.69;5046628;28;20184;-73
2022/06/22 09:10:04;;;;;;;1.30;0.88;;;;;;;34.41;35.74;101481.09;5019928;28;20052;-73
2022/06/22 09:12:51;;;;;;;2.38;1.13;;;;;;;34.77;36.83;101487.97;5048317;28;20056;-73
2022/06/22 09:15:33;;;;;;;1.35;0.80;;;;;;;35.26;36.50;101485.81;5050007;28;20587;-73
2022/06/22 09:18:24;;;;;;;2.28;1.33;;;;;;;35.43;36.56;101484.16;5049977;28;20025;-73
2022/06/22 09:21:17;;;;;;;2.80;1.30;;;;;;;35.04;37.00;101487.28;5048537;28;20431;-73
2022/06/22 09:24:24;;;;;;;5.03;1.20;;;;;;;35.05;37.21;101494.38;5049863;28;20036;-73
2022/06/22 09:27:14;;;;;;;1.92;1.25;;;;;;;34.91;37.92;101490.78;5048543;28;20031;-73
2022/06/22 09:29:56;;;;;;;2.75;1.50;;;;;;;34.70;38.41;101488.38;5047559;28;20037;-73
2022/06/22 09:32:43;;;;;;;2.95;1.20;;;;;;;35.08;37.97;101495.72;5045580;28;20380;-73
2022/06/22 09:35:17;;;;;;;1.50;1.02;;;;;;;35.02;37.25;101503.22;5047259;28;20112;-73
2022/06/22 09:37:53;;;;;;;3.83;1.50;;;;;;;35.17;37.11;101503.00;5034261;28;20107;-73
2022/06/22 09:40:36;;;;;;;2.28;1.00;;;;;;;35.19;37.99;101506.25;5048433;28;20059;-73
2022/06/22 09:43:31;;;;;;;4.10;1.10;;;;;;;35.18;37.88;101504.59;5046922;28;20052;-73
2022/06/22 09:46:33;;;;;;;3.72;1.40;;;;;;;35.45;36.96;101508.53;5045050;28;20379;-73
2022/06/22 09:49:26;;;;;;;1.58;0.73;;;;;;;35.48;36.93;101513.41;5045104;28;20021;-73
2022/06/22 09:52:00;;;;;;;1.45;1.00;;;;;;;35.16;36.26;101511.53;5048487;28;20576;-70
2022/06/22 09:57:40;;;;;;;2.92;1.13;;;;;;;35.33;37.30;101509.03;5050609;28;20067;-73
2022/06/22 10:00:15;;;;;;;3.15;1.13;;;;;;;35.78;37.00;101516.72;5047347;28;20020;-73
2022/06/22 10:02:58;;;;;;;1.80;1.10;;;;;;;35.86;37.04;101515.22;5048423;28;20591;-73
2022/06/22 10:05:30;;;;;;;2.25;1.08;;;;;;;36.19;35.90;101504.94;5044272;28;20056;-73
2022/06/22 10:08:10;;;;;;;3.22;1.20;;;;;;;35.91;37.11;101509.59;5069558;28;20103;-73
2022/06/22 10:11:00;;;;;;;2.67;1.08;;;;;;;35.30;36.42;101506.06;5066912;28;20021;-73
2022/06/22 10:13:54;;;;;;;4.75;1.08;;;;;;;35.21;37.11;101503.19;5064661;28;20092;-73
2022/06/22 10:16:48;;;;;;;3.10;1.40;;;;;;;35.51;34.88;101501.81;5069060;28;20021;-73
2022/06/22 10:19:36;;;;;;;3.08;1.02;;;;;;;34.30;37.68;101496.03;5040621;28;20115;-73
2022/06/22 10:22:01;;;;;;;3.30;1.35;;;;;;;34.09;36.55;101489.16;5069443;28;20031;-73
2022/06/22 10:24:47;;;;;;;2.43;1.10;;;;;;;35.23;36.77;101496.31;5062418;28;20429;-73
2022/06/22 10:27:47;;;;;;;2.92;0.93;;;;;;;36.60;34.27;101498.50;5065806;28;20313;-73
2022/06/22 10:30:36;;;;;;;1.58;0.93;;;;;;;36.56;34.18;101498.31;5063269;28;20020;-73
2022/06/22 10:33:05;;;;;;;2.22;0.65;;;;;;;36.53;34.90;101495.38;5061401;28;20336;-73
2022/06/22 10:36:11;;;;;;;2.17;1.17;;;;;;;36.78;35.28;101494.00;5063122;28;20031;-73
2022/06/22 10:38:37;;;;;;;1.92;1.20;;;;;;;36.47;35.76;101489.19;5052379;28;20290;-73
2022/06/22 10:47:13;;;;;;;5.47;1.33;;;;;;;37.91;34.70;101500.13;5063580;28;20051;-73
2022/06/22 10:50:00;;;;;;;4.00;1.02;;;;;;;37.45;34.48;101496.69;5062522;28;20135;-73
2022/06/22 10:53:05;;;;;;;1.45;0.98;;;;;;;37.82;34.22;101499.28;5062048;28;20502;-73
2022/06/22 10:56:11;;;;;;;2.08;0.90;;;;;;;38.43;33.82;101502.97;5063460;28;20090;-73
2022/06/22 10:59:14;;;;;;;2.95;0.90;;;;;;;38.69;32.59;101496.69;5063699;28;20036;-73
2022/06/22 11:01:54;;;;;;;1.45;0.95;;;;;;;38.27;32.34;101499.09;5063541;28;20032;-73
2022/06/22 11:04:19;;;;;;;;;;;;;;;38.34;32.76;101498.63;5063795;28;20024;-73
2022/06/22 11:06:50;;;;;;;3.27;1.10;;;;;;;38.06;31.53;101499.69;5043116;28;20418;-73
2022/06/22 11:09:25;;;;;;;2.28;1.10;;;;;;;37.24;35.40;101499.19;5043875;28;20562;-73
2022/06/22 11:12:05;;;;;;;4.43;1.30;;;;;;;37.51;34.08;101494.63;5044583;28;20025;-73
2022/06/22 11:15:02;;;;;;;2.92;1.30;;;;;;;37.09;34.76;101502.34;5045728;28;20168;-73
2022/06/22 11:17:47;;;;;;;8.57;1.35;;;;;;;35.97;34.66;101489.97;5044600;28;20025;-73
2022/06/22 11:20:44;;;;;;;2.33;1.10;;;;;;;34.30;38.65;101484.25;5043056;28;20029;-73
2022/06/22 11:23:36;;;;;;;1.88;0.70;;;;;;;36.11;35.61;101492.72;5045706;28;20485;-73
2022/06/22 11:32:31;;;;;;;3.08;1.00;;;;;;;32.77;40.86;101482.75;5041248;28;20563;-72
2022/06/22 11:35:16;;;;;;;1.00;0.80;;;;;;;34.74;38.43;101489.41;5040481;28;20527;-72
2022/06/22 11:37:53;;;;;;;5.03;1.52;;;;;;;36.07;36.27;101480.72;5000382;28;20067;-72
2022/06/22 11:40:48;;;;;;;2.95;0.98;;;;;;;37.02;35.17;101482.66;5040832;28;20418;-72
2022/06/22 11:43:44;;;;;;;0.98;0.70;;;;;;;36.39;35.85;101487.16;5020382;28;20032;-72
2022/06/22 11:46:31;;;;;;;2.58;1.05;;;;;;;34.63;37.29;101476.97;5042035;28;20044;-72
2022/06/22 11:49:26;;;;;;;2.35;1.15;;;;;;;33.03;39.51;101468.06;5041846;28;20029;-72
2022/06/22 11:52:06;;;;;;;1.75;1.08;;;;;;;32.16;40.10;101472.13;5041677;28;20056;-72
2022/06/22 11:54:50;;;;;;;1.95;1.10;;;;;;;30.72;42.08;101466.03;5041665;28;20417;-72
2022/06/22 11:57:53;;;;;;;3.15;1.23;;;;;;;30.43;43.52;101468.44;5042226;28;20056;-72
2022/06/22 12:00:32;;;;;;;1.52;0.93;;;;;;;31.97;41.17;101467.31;5043979;28;20079;-72
2022/06/22 12:03:35;;;;;;;1.67;1.10;;;;;;;33.15;40.17;101461.16;5025879;28;20528;-72
2022/06/22 12:06:00;;;;;;;1.38;0.73;;;;;;;34.30;38.59;101460.44;5043209;28;20044;-71
2022/06/22 12:08:47;;;;;;;1.83;1.00;;;;;;;34.90;37.31;101453.50;5044530;28;20435;-71
2022/06/22 12:11:31;;;;;;;1.58;0.80;;;;;;;35.61;36.95;101445.94;5045108;28;20286;-72
2022/06/22 12:17:38;;;;;;;2.08;1.15;;;;;;;35.72;36.35;101441.06;5042403;28;20044;-72
2022/06/22 12:20:09;;;;;;;1.70;0.90;;;;;;;35.07;36.77;101434.56;5042270;28;20097;-72
2022/06/22 12:22:55;;;;;;;2.42;0.80;;;;;;;35.04;37.11;101432.44;5041404;28;20029;-72
2022/06/22 12:25:57;;;;;;;1.70;0.80;;;;;;;35.34;37.18;101427.50;5042609;28;20089;-72
2022/06/22 12:28:51;;;;;;;3.50;1.15;;;;;;;35.44;37.61;101424.56;5041431;28;20520;-73
2022/06/22 12:31:32;;;;;;;5.00;1.48;;;;;;;35.64;37.64;101424.19;5044902;28;20029;-72
2022/06/22 12:34:25;;;;;;;2.67;1.55;;;;;;;35.19;37.39;101421.22;5043072;28;20621;-72
2022/06/22 12:36:55;;;;;;;3.38;1.40;;;;;;;35.01;37.52;101397.34;5026585;28;20493;-72
2022/06/22 12:39:23;;;;;;;;;;;;;;;34.93;38.68;101426.31;5046335;28;20060;-72
2022/06/22 12:42:11;;;;;;;1.73;0.95;;;;;;;34.94;39.23;101421.63;5047838;28;20292;-72
2022/06/22 12:45:30;;;;;;;2.10;1.00;;;;;;;35.31;38.27;101422.63;5046504;28;20485;-72